Dauntless Aviation
Airports South America Argentina
SABE
AEP

Aeroparque Jorge Newbery

Buenos Aires, ARGENTINA

Airport Info
Suggest Updated Information for this Airport

Location

Latitude / Longitude: 34°33'33"S / 58°24'56"W
  34°33.552'S / 58°24.936'W
  -34.5592 / -58.4156

Nearby radio navigation aids

FDO SAN FERNANDO VOR/DME. 132.7° 10.6nm from FDO to field.
OP AEROPARQUE JORGE NEWBERY NDB. 131.1° 4.3nm from OP to field.

Runway Information

Runway 13 /31

Dimensions: 6890 x 131 ft.
Surface: ASP
 
Runway 13
Runway 31
Latitude: -34.553942 -34.563844
Longitude: -58.425247 -58.407506
Elevation: 18 ft. 18 ft.
Runway true heading: 126.3 306.3
 

Instrument Procedures

  Aerodrome Chart

STARs (Standard Terminal Arrivals)

  STAR Rwy 13/16 SARGO7C KOVUK7C TENIL7C BELGRANO7C
  STAR Rwy 13/16 PAGON7C SAN ANTONIO7C ASADA7C VALOS8C
  STAR Rwy 13/16 SURBO7A KUKEN1C PAPIX1C
  STAR Rwy 31 SURBO2B SARGO7D KOVUK7D TENIL7D BELGRANO7D VALOS7D ASADA7D
  STAR Rwy 31 PAGON7D SAN ANTONIO7D

IAPs (Instrument Approach Procedures)

  VOR (DME) ILS Rwy 13
  VOR (DMS) ILS (DME) Rwy 13
  LI ILS (DME) Rwy 13
  VOR (DME) LO LI Rwy 13
  LI LO LI Rwy 13
  LI Rwy 31
  LI Rwy 31

Departure Procedures

  SID Rwy 13/31 LANDA3B VIBAM38 ATOVO38
  SID Rwy 13/31 EZEIZA8
  SID Rwy 13/31 EL PALOMAR 8
  SID Rwy 13/31 KUKEN7 SURBO7 DORVO7 LA PLAYA7
Satellite photo at:
Airport distance calculator
From:
Weather Reports

METAR

SABE

SABE 120500Z 34010KT CAVOK 28/23 Q1008
SADF
10.6nm W
SADF 120500Z 36006KT CAVOK 26/21 Q1008
SAEZ
16.2nm S
SAEZ 120500Z 04005KT CAVOK 27/23 Q1008

TAF

SABE
TAF SABE 112300Z 1200/1224 11010KT CAVOK TX33/1218Z TN24/1208Z BECMG 1202/1204 02015KT 9999 SCT030 BKN100 BECMG 1208/1210 36020KT
SADF
10.6nm W
TAF SADF 112300Z 1200/1224 07010KT CAVOK TX35/1218Z TN22/1208Z BECMG 1202/1204 36015KT 9999 SCT030 BECMG 1214/1216 05020KT SCT025 SCT100
SAEZ
16.2nm S
TAF SAEZ 112300Z 1200/1224 06012KT 9999 SCT040 FEW050TCU TX35/1219Z TN24/1209Z BECMG 1202/1204 9000 -SHRA BKN030 FEW050CB TEMPO 1206/1212 36015KT CAVOK PROB30 1218/1223 9999SCT040 FEW050TCU
SUCA
30.3nm NE
TAF SUCA 112310Z 1200/1224 12010KT CAVOK TX34/1218Z TN19/1210Z PROB30 TEMPO 1200/1206 7000 NSC BECMG 1202/1204 02008KT BECMG 1214/1216 33015KT 9999 FEW026 SCT040
Safelog

 

Dauntless Aviation

© 2007-2016 Dauntless Aviation, all rights reserved
Information provided via PilotNav comes from a variety of official and unofficial data sources. As errors are possible, do not use PilotNav for primary flight planning purposes. Verify any information that you receive via PilotNav with current and canonical charts and other official documents. The material in this database is subject to database copyrights held by Dauntless Aviation and may not be copied without the express permission of Dauntless Aviation - licenses for use of part of all of this data are available for purchase; enquire via the Dauntless Aviation helpdesk. A number of mechanisms and markers exist in the database to protect against and identify infringement / copyright. Automated queries against this website are stictly prohibited, and all activity is logged and analyzed.